sensor_id;sensor_type;location;lat;lon;timestamp;pressure;altitude;pressure_sealevel;temperature;humidity
15558;BME280;7880;50.110;9.372;2023-01-28T00:02:21;0.7209653094003443;;;0.937;100.0
15558;BME280;7880;50.110;9.372;2023-01-28T00:07:24;0.841967063449556;;;1.0;100.0
15558;BME280;7880;50.110;9.372;2023-01-28T00:12:28;0.9226349926146213;;;1.062;100.0
15558;BME280;7880;50.110;9.372;2023-01-28T00:17:31;0.826841835025698;;;1.0;100.0
15558;BME280;7880;50.110;9.372;2023-01-28T00:22:34;0.9075097502209246;;;1.062;100.0
15558;BME280;7880;50.110;9.372;2023-01-28T00:27:41;0.841967063449556;;;1.0;100.0
15558;BME280;7880;50.110;9.372;2023-01-28T00:32:42;0.841967063449556;;;1.0;100.0
15558;BME280;7880;50.110;9.372;2023-01-28T00:37:45;0.8218000927998219;;;1.0;100.0
15558;BME280;7880;50.110;9.372;2023-01-28T00:42:53;0.7915496455563698;;;0.937;100.0
15558;BME280;7880;50.110;9.372;2023-01-28T00:48:05;0.7612992087902967;;;0.937;100.0
15558;BME280;7880;50.110;9.372;2023-01-28T00:53:00;0.836925320350565;;;1.0;100.0
15558;BME280;7880;50.110;9.372;2023-01-28T00:58:01;0.7915496455563698;;;0.937;100.0
15558;BME280;7880;50.110;9.372;2023-01-28T01:02:59;0.7713826865481679;;;0.937;100.0
15558;BME280;7880;50.110;9.372;2023-01-28T01:08:04;0.8218000927998219;;;0.937;100.0
15558;BME280;7880;50.110;9.372;2023-01-28T01:13:07;0.7209653094003443;;;0.937;100.0
15558;BME280;7880;50.110;9.372;2023-01-28T01:18:11;0.6705479613563512;;;0.812;100.0
15558;BME280;7880;50.110;9.372;2023-01-28T01:23:17;0.7915496455563698;;;0.937;100.0
15558;BME280;7880;50.110;9.372;2023-01-28T01:28:26;0.6806314286368433;;;0.812;100.0
15558;BME280;7880;50.110;9.372;2023-01-28T01:33:24;0.7058401019312441;;;0.812;100.0
15558;BME280;7880;50.110;9.372;2023-01-28T01:38:27;0.6907148970814887;;;0.875;100.0
15558;BME280;7880;50.110;9.372;2023-01-28T01:43:48;0.5898802650219295;;;0.812;100.0
15558;BME280;7880;50.110;9.372;2023-01-28T01:48:42;0.6503810302878265;;;0.875;100.0
15558;BME280;7880;50.110;9.372;2023-01-28T01:53:53;0.5092126431933138;;;0.687;100.0
15558;BME280;7880;50.110;9.372;2023-01-28T01:59:10;0.5092126431933138;;;0.687;100.0
15558;BME280;7880;50.110;9.372;2023-01-28T02:04:01;0.5092126431933138;;;0.625;100.0
15558;BME280;7880;50.110;9.372;2023-01-28T02:09:00;0.5394629926478955;;;0.687;100.0
15558;BME280;7880;50.110;9.372;2023-01-28T02:14:04;0.6201306424161885;;;0.812;100.0
15558;BME280;7880;50.110;9.372;2023-01-28T02:19:06;0.6705479613563512;;;0.812;100.0
15558;BME280;7880;50.110;9.372;2023-01-28T02:24:23;0.7865079053677618;;;0.937;100.0
15558;BME280;7880;50.110;9.372;2023-01-28T02:29:24;0.6604644952400122;;;0.875;100.0
15558;BME280;7880;50.110;9.372;2023-01-28T02:34:24;0.7310487825016025;;;0.875;100.0
15558;BME280;7880;50.110;9.372;2023-01-28T02:39:30;0.6352558350423351;;;0.812;100.0
15558;BME280;7880;50.110;9.372;2023-01-28T02:44:26;0.599963722989196;;;0.812;100.0
15558;BME280;7880;50.110;9.372;2023-01-28T02:49:38;0.48904574937769213;;;0.687;100.0
15558;BME280;7880;50.110;9.372;2023-01-28T02:54:43;0.599963722989196;;;0.687;100.0
15558;BME280;7880;50.110;9.372;2023-01-28T02:59:48;0.5949219938600436;;;0.75;100.0
15558;BME280;7880;50.110;9.372;2023-01-28T03:04:53;0.4991291957034264;;;0.687;100.0
15558;BME280;7880;50.110;9.372;2023-01-28T03:09:51;0.6655062281526625;;;0.812;100.0
15558;BME280;7880;50.110;9.372;2023-01-28T03:42:23;0.5545881713042036;;;0.75;100.0
15558;BME280;7880;50.110;9.372;2023-01-28T03:47:28;0.4083782206813339;;;0.625;100.0
15558;BME280;7880;50.110;9.372;2023-01-28T03:52:32;0.504170919302851;;;0.687;100.0
15558;BME280;7880;50.110;9.372;2023-01-28T03:57:35;0.5293795416655485;;;0.687;100.0
15558;BME280;7880;50.110;9.372;2023-01-28T04:02:40;0.4991291957034264;;;0.687;100.0
15558;BME280;7880;50.110;9.372;2023-01-28T04:07:43;0.5445047185756267;;;0.687;100.0
15558;BME280;7880;50.110;9.372;2023-01-28T04:12:49;0.5898802650219295;;;0.687;100.0
15558;BME280;7880;50.110;9.372;2023-01-28T04:17:55;0.4940874723950401;;;0.687;100.0
15558;BME280;7880;50.110;9.372;2023-01-28T04:23:04;0.46887886021868325;;;0.562;100.0
15558;BME280;7880;50.110;9.372;2023-01-28T04:28:01;0.504170919302851;;;0.687;100.0
15558;BME280;7880;50.110;9.372;2023-01-28T04:33:04;0.45879541738540863;;;0.562;100.0
15558;BME280;7880;50.110;9.372;2023-01-28T04:38:08;0.5092126431933138;;;0.625;100.0
15558;BME280;7880;50.110;9.372;2023-01-28T04:43:11;0.4537536964053288;;;0.625;100.0
15558;BME280;7880;50.110;9.372;2023-01-28T04:48:18;0.5092126431933138;;;0.625;100.0
15558;BME280;7880;50.110;9.372;2023-01-28T04:53:20;0.48904574937769213;;;0.687;100.0
15558;BME280;7880;50.110;9.372;2023-01-28T04:58:29;0.6655062281526625;;;0.812;100.0
15558;BME280;7880;50.110;9.372;2023-01-28T05:03:36;0.5949219938600436;;;0.812;100.0
15558;BME280;7880;50.110;9.372;2023-01-28T05:08:42;0.5344212670112028;;;0.687;100.0
15558;BME280;7880;50.110;9.372;2023-01-28T05:13:37;0.5092126431933138;;;0.625;100.0
15558;BME280;7880;50.110;9.372;2023-01-28T05:18:42;0.5293795416655485;;;0.625;100.0
15558;BME280;7880;50.110;9.372;2023-01-28T05:23:44;0.6352558350423351;;;0.75;100.0
15558;BME280;7880;50.110;9.372;2023-01-28T05:28:55;0.6302141038759146;;;0.812;100.0
15558;BME280;7880;50.110;9.372;2023-01-28T05:33:54;0.7209653094003443;;;0.937;100.0
15558;BME280;7880;50.110;9.372;2023-01-28T05:38:55;0.6251723730005324;;;0.875;100.0
15558;BME280;7880;50.110;9.372;2023-01-28T05:44:38;0.5697133525798563;;;0.75;100.0
15558;BME280;7880;50.110;9.372;2023-01-28T05:49:41;0.6251723730005324;;;0.812;100.0
15558;BME280;7880;50.110;9.372;2023-01-28T05:54:50;0.5243378166109324;;;0.687;100.0
15558;BME280;7880;50.110;9.372;2023-01-28T05:59:50;0.4487119757162873;;;0.625;100.0
15558;BME280;7880;50.110;9.372;2023-01-28T06:04:59;0.33779419419006446;;;0.5;100.0
15558;BME280;7880;50.110;9.372;2023-01-28T06:10:06;0.4487119757162873;;;0.562;100.0
15558;BME280;7880;50.110;9.372;2023-01-28T06:15:09;0.36804448427283204;;;0.5;100.0
15558;BME280;7880;50.110;9.372;2023-01-28T06:20:12;0.2016680184751749;;;0.375;100.0
15558;BME280;7880;50.110;9.372;2023-01-28T06:25:19;0.41341993904206903;;;0.562;100.0
15558;BME280;7880;50.110;9.372;2023-01-28T06:30:21;0.3630027685314417;;;0.562;100.0
15558;BME280;7880;50.110;9.372;2023-01-28T06:35:27;0.5192960918473546;;;0.687;100.0
15558;BME280;7880;50.110;9.372;2023-01-28T06:40:32;0.5344212670112028;;;0.687;100.0
15558;BME280;7880;50.110;9.372;2023-01-28T06:45:34;0.6302141038759146;;;0.812;100.0
15558;BME280;7880;50.110;9.372;2023-01-28T06:50:36;0.4487119757162873;;;0.687;100.0
15558;BME280;7880;50.110;9.372;2023-01-28T06:55:39;0.3125856271246448;;;0.562;100.0
15558;BME280;7880;50.110;9.372;2023-01-28T07:00:43;0.3579610530810896;;;0.5;100.0
15558;BME280;7880;50.110;9.372;2023-01-28T07:05:49;0.2772936454566661;;;0.437;100.0
15558;BME280;7880;50.110;9.372;2023-01-28T07:10:55;0.4487119757162873;;;0.562;100.0
15558;BME280;7880;50.110;9.372;2023-01-28T07:15:59;0.33779419419006446;;;0.5;100.0
15558;BME280;7880;50.110;9.372;2023-01-28T07:21:03;0.2974604903778527;;;0.437;100.0
15558;BME280;7880;50.110;9.372;2023-01-28T07:26:13;0.3579610530810896;;;0.5;100.0
15558;BME280;7880;50.110;9.372;2023-01-28T07:31:11;0.25208509585354477;;;0.437;100.0
15558;BME280;7880;50.110;9.372;2023-01-28T07:36:15;0.1966263123380486;;;0.375;100.0
15558;BME280;7880;50.110;9.372;2023-01-28T07:41:20;0.1815011956728995;;;0.312;100.0
15558;BME280;7880;50.110;9.372;2023-01-28T07:46:23;0.1260424569773022;;;0.25;100.0
15558;BME280;7880;50.110;9.372;2023-01-28T07:51:27;0.27225193495396527;;;0.437;100.0
15558;BME280;7880;50.110;9.372;2023-01-28T07:56:31;0.3075439145846758;;;0.437;100.0
15558;BME280;7880;50.110;9.372;2023-01-28T08:01:34;0.2218348459340632;;;0.375;100.0
15558;BME280;7880;50.110;9.372;2023-01-28T08:06:41;0.38316963324323294;;;0.5;100.0
15558;BME280;7880;50.110;9.372;2023-01-28T08:11:43;0.2974604903778527;;;0.437;100.0
15558;BME280;7880;50.110;9.372;2023-01-28T08:16:49;0.3327524801949039;;;0.437;100.0
15558;BME280;7880;50.110;9.372;2023-01-28T08:21:53;0.1714177860179916;;;0.312;100.0
15558;BME280;7880;50.110;9.372;2023-01-28T08:26:54;0.2974604903778527;;;0.375;100.0
15558;BME280;7880;50.110;9.372;2023-01-28T08:31:58;0.3025022023357451;;;0.437;100.0
15558;BME280;7880;50.110;9.372;2023-01-28T08:37:05;0.14620926697389222;;;0.375;100.0
15558;BME280;7880;50.110;9.372;2023-01-28T08:42:07;0.1966263123380486;;;0.312;100.0
15558;BME280;7880;50.110;9.372;2023-01-28T08:47:11;0.19158460649196057;;;0.312;100.0
15558;BME280;7880;50.110;9.372;2023-01-28T08:52:17;0.13612586139352062;;;0.25;100.0
15558;BME280;7880;50.110;9.372;2023-01-28T08:57:27;0.005041694786632434;;;0.187;100.0
15558;BME280;7880;50.110;9.372;2023-01-28T09:02:25;0.05041696096304804;;;0.125;100.0
15558;BME280;7880;50.110;9.372;2023-01-28T09:07:28;0.3327524801949039;;;0.437;100.0
15558;BME280;7880;50.110;9.372;2023-01-28T09:12:32;0.1966263123380486;;;0.312;100.0
15558;BME280;7880;50.110;9.372;2023-01-28T09:17:56;0.12100075520575046;;;0.25;100.0
15558;BME280;7880;50.110;9.372;2023-01-28T09:22:39;0.13612586139352062;;;0.25;100.0
15558;BME280;7880;50.110;9.372;2023-01-28T09:27:43;0.24200167804956435;;;0.312;100.0
15558;BME280;7880;50.110;9.372;2023-01-28T09:32:49;0.3529193379217759;;;0.437;100.0
15558;BME280;7880;50.110;9.372;2023-01-28T09:37:56;0.1966263123380486;;;0.312;100.0
15558;BME280;7880;50.110;9.372;2023-01-28T09:43:04;0.3428359084762633;;;0.5;100.0
15558;BME280;7880;50.110;9.372;2023-01-28T09:47:59;0.20670972490333953;;;0.312;100.0
15558;BME280;7880;50.110;9.372;2023-01-28T09:53:04;0.19158460649196057;;;0.312;100.0
15558;BME280;7880;50.110;9.372;2023-01-28T09:58:10;0.1966263123380486;;;0.312;100.0
15558;BME280;7880;50.110;9.372;2023-01-28T10:03:22;0.21679313863278366;;;0.375;100.0
15558;BME280;7880;50.110;9.372;2023-01-28T10:08:26;0.2823353562504053;;;0.312;100.0
15558;BME280;7880;50.110;9.372;2023-01-28T10:13:26;0.27225193495396527;;;0.437;100.0
15558;BME280;7880;50.110;9.372;2023-01-28T10:18:39;0.23191826140973718;;;0.312;100.0
15558;BME280;7880;50.110;9.372;2023-01-28T10:23:38;0.33779419419006446;;;0.437;100.0
15558;BME280;7880;50.110;9.372;2023-01-28T10:28:34;0.2571268051920924;;;0.437;100.0
15558;BME280;7880;50.110;9.372;2023-01-28T10:33:51;0.19158460649196057;;;0.375;100.0
15558;BME280;7880;50.110;9.372;2023-01-28T10:38:42;-0.015125082613667473;;;0.125;100.0
15558;BME280;7880;50.110;9.372;2023-01-28T10:43:46;0.14116756403818725;;;0.25;100.0
15558;BME280;7880;50.110;9.372;2023-01-28T10:48:56;-0.005041694495594129;;;0.125;100.0
15558;BME280;7880;50.110;9.372;2023-01-28T10:53:54;0.08570885095396079;;;0.187;100.0
15558;BME280;7880;50.110;9.372;2023-01-28T10:59:01;0.0;;;0.062;100.0
15558;BME280;7880;50.110;9.372;2023-01-28T11:04:03;-0.08066707700490952;;;0.062;100.0
15558;BME280;7880;50.110;9.372;2023-01-28T11:09:20;-0.07058369645383208;;;0.0;100.0
15558;BME280;7880;50.110;9.372;2023-01-28T11:14:19;0.05545865866006352;;;0.187;100.0
15558;BME280;7880;50.110;9.372;2023-01-28T11:19:17;0.3781279166287277;;;0.5;100.0
15558;BME280;7880;50.110;9.372;2023-01-28T11:24:22;0.14620926697389222;;;0.375;100.0
15558;BME280;7880;50.110;9.372;2023-01-28T11:29:26;-0.0252084695675876;;;0.125;100.0
15558;BME280;7880;50.110;9.372;2023-01-28T11:34:29;-0.12604227507836185;;;0.0;100.0
15558;BME280;7880;50.110;9.372;2023-01-28T11:39:30;-0.09579214564873836;;;0.0;100.0
15558;BME280;7880;50.110;9.372;2023-01-28T11:44:35;-0.26720940721570513;;;-0.125;100.0
15558;BME280;7880;50.110;9.372;2023-01-28T11:49:48;0.0907505506882444;;;0.125;100.0
15558;BME280;7880;50.110;9.372;2023-01-28T11:54:49;-0.18654250250547194;;;0.062;100.0
15558;BME280;7880;50.110;9.372;2023-01-28T11:59:56;-0.19662586966878734;;;-0.062;100.0
15558;BME280;7880;50.110;9.372;2023-01-28T12:05:08;-0.19158418623264878;;;-0.062;100.0
15558;BME280;7880;50.110;9.372;2023-01-28T12:09:57;-0.3478762374201324;;;-0.187;100.0
15558;BME280;7880;50.110;9.372;2023-01-28T12:15:09;-0.43862633234239184;;;-0.312;100.0
15558;BME280;7880;50.110;9.372;2023-01-28T12:20:12;-0.3882096245826688;;;-0.25;100.0
15558;BME280;7880;50.110;9.372;2023-01-28T12:25:19;-0.10587552328943275;;;-0.125;100.0
15558;BME280;7880;50.110;9.372;2023-01-28T12:30:23;-0.005041694495594129;;;0.125;100.0
15558;BME280;7880;50.110;9.372;2023-01-28T12:35:26;-0.15629239403060638;;;0.0;100.0
15558;BME280;7880;50.110;9.372;2023-01-28T12:40:46;-0.22183428248390555;;;-0.125;100.0
15558;BME280;7880;50.110;9.372;2023-01-28T12:45:32;-0.30250115459784865;;;-0.187;100.0
15558;BME280;7880;50.110;9.372;2023-01-28T12:50:35;0.005041694786632434;;;0.062;100.0
15558;BME280;7880;50.110;9.372;2023-01-28T12:55:39;-0.04033354781568051;;;0.187;100.0
15558;BME280;7880;50.110;9.372;2023-01-28T13:00:42;0.0655420549272094;;;0.25;100.0
15558;BME280;7880;50.110;9.372;2023-01-28T13:05:48;0.2218348459340632;;;0.312;100.0
15558;BME280;7880;50.110;9.372;2023-01-28T13:10:48;-0.06554200574173592;;;0.25;100.0
15558;BME280;7880;50.110;9.372;2023-01-28T13:15:54;0.09579225071356631;;;0.187;100.0
15558;BME280;7880;50.110;9.372;2023-01-28T13:21:03;-0.09075045639183373;;;0.125;100.0
15558;BME280;7880;50.110;9.372;2023-01-28T13:26:10;-0.04033354781568051;;;0.062;100.0
15558;BME280;7880;50.110;9.372;2023-01-28T13:31:09;-0.28233444355428217;;;-0.187;100.0
15558;BME280;7880;50.110;9.372;2023-01-28T13:36:23;-0.07562538687488995;;;0.0;100.0
15558;BME280;7880;50.110;9.372;2023-01-28T13:41:17;-0.2772927650657948;;;-0.125;100.0
15558;BME280;7880;50.110;9.372;2023-01-28T13:46:30;-0.2873761217517313;;;-0.25;100.0
15558;BME280;7880;50.110;9.372;2023-01-28T13:51:30;-0.43862633234239184;;;-0.312;100.0
15558;BME280;7880;50.110;9.372;2023-01-28T13:56:38;-0.46383467530831696;;;-0.375;100.0
15558;BME280;7880;50.110;9.372;2023-01-28T14:01:59;-0.33779288771911525;;;-0.312;100.0
15558;BME280;7880;50.110;9.372;2023-01-28T14:07:00;-0.3478762374201324;;;-0.25;100.0
15558;BME280;7880;50.110;9.372;2023-01-28T14:18:43;-0.5697096363117453;;;-0.312;100.0
15558;BME280;7880;50.110;9.372;2023-01-28T14:23:47;-0.5192930042219814;;;-0.375;100.0
15558;BME280;7880;50.110;9.372;2023-01-28T14:28:55;-0.5898762809985783;;;-0.437;100.0
15558;BME280;7880;50.110;9.372;2023-01-28T14:33:54;-0.5848346202634275;;;-0.437;100.0
15558;BME280;7880;50.110;9.372;2023-01-28T14:39:04;-0.6302095564024057;;;-0.562;100.0
15558;BME280;7880;50.110;9.372;2023-01-28T14:44:02;-0.599959601595765;;;-0.437;100.0
15558;BME280;7880;50.110;9.372;2023-01-28T14:49:19;-0.6201262392976787;;;-0.5;100.0
15558;BME280;7880;50.110;9.372;2023-01-28T14:54:22;-0.8621255285048391;;;-0.687;100.0
15558;BME280;7880;50.110;9.372;2023-01-28T14:59:17;-0.6251678979955614;;;-0.562;100.0
15558;BME280;7880;50.110;9.372;2023-01-28T15:04:22;-0.7865008226595819;;;-0.562;100.0
15558;BME280;7880;50.110;9.372;2023-01-28T15:09:22;-0.7915424717532005;;;-0.687;100.0
15558;BME280;7880;50.110;9.372;2023-01-28T15:14:34;-0.6251678979955614;;;-0.562;100.0
15558;BME280;7880;50.110;9.372;2023-01-28T15:19:36;-0.39829296846291984;;;-0.375;100.0
15558;BME280;7880;50.110;9.372;2023-01-28T15:24:33;-0.3579595859569963;;;-0.25;100.0
15558;BME280;7880;50.110;9.372;2023-01-28T15:29:36;-0.5545846497407183;;;-0.375;100.0
15558;BME280;7880;50.110;9.372;2023-01-28T15:34:45;-0.6150845803087577;;;-0.562;100.0
15558;BME280;7880;50.110;9.372;2023-01-28T15:39:43;-0.7058343975804746;;;-0.562;100.0
15558;BME280;7880;50.110;9.372;2023-01-28T15:44:48;-0.6604595007316675;;;-0.5;100.0
15558;BME280;7880;50.110;9.372;2023-01-28T15:49:53;-0.5394596605503466;;;-0.437;100.0
15558;BME280;7880;50.110;9.372;2023-01-28T15:54:54;-0.46887634302838704;;;-0.375;100.0
15558;BME280;7880;50.110;9.372;2023-01-28T16:00:11;-0.5445013239048422;;;-0.375;100.0
15558;BME280;7880;50.110;9.372;2023-01-28T16:05:05;-0.49912634323700333;;;-0.375;100.0
15558;BME280;7880;50.110;9.372;2023-01-28T16:10:19;0.8218000927998219;;;0.437;100.0
15558;BME280;7880;50.110;9.372;2023-01-28T16:15:15;-0.8318756540247705;;;-0.437;100.0
15558;BME280;7880;50.110;9.372;2023-01-28T16:18:48;-0.3478762374201324;;;0.062;100.0
15558;BME280;7880;50.110;9.372;2023-01-28T16:23:50;-0.645334529876709;;;-0.562;100.0
15558;BME280;7880;50.110;9.372;2023-01-28T16:28:49;-0.8117090652172919;;;-0.687;100.0
15558;BME280;7880;50.110;9.372;2023-01-28T16:33:59;-0.988166559394449;;;-0.875;100.0
15558;BME280;7880;50.110;9.372;2023-01-28T16:38:57;-0.6705428131797817;;;-0.562;100.0
15558;BME280;7880;50.110;9.372;2023-01-28T16:44:05;-0.6705428131797817;;;-0.625;100.0
15558;BME280;7880;50.110;9.372;2023-01-28T16:49:06;-0.9780832836171612;;;-0.812;100.0
15558;BME280;7880;50.110;9.372;2023-01-28T16:59:26;-0.5949179414426908;;;-0.375;100.0
15558;BME280;7880;50.110;9.372;2023-01-28T17:04:16;-0.5697096363117453;;;-0.375;100.0
15558;BME280;7880;50.110;9.372;2023-01-28T17:09:18;-0.49912634323700333;;;-0.375;100.0
15558;BME280;7880;50.110;9.372;2023-01-28T17:14:24;-0.5092096743115689;;;-0.312;100.0
15558;BME280;7880;50.110;9.372;2023-01-28T17:19:27;-0.5192930042219814;;;-0.437;100.0
15558;BME280;7880;50.110;9.372;2023-01-28T17:24:29;-0.49912634323700333;;;-0.375;100.0
15558;BME280;7880;50.110;9.372;2023-01-28T17:29:34;-0.5596263122220989;;;-0.437;100.0
15558;BME280;7880;50.110;9.372;2023-01-28T17:34:38;-0.574751297920011;;;-0.437;100.0
15558;BME280;7880;50.110;9.372;2023-01-28T17:39:42;-0.5898762809985783;;;-0.437;100.0
15558;BME280;7880;50.110;9.372;2023-01-28T17:44:48;-0.5041680089198053;;;-0.375;100.0
15558;BME280;7880;50.110;9.372;2023-01-28T17:49:51;-0.5092096743115689;;;-0.375;100.0
15558;BME280;7880;50.110;9.372;2023-01-28T17:54:55;-0.645334529876709;;;-0.437;100.0
15558;BME280;7880;50.110;9.372;2023-01-28T18:00:11;-0.6806261244637426;;;-0.562;100.0
15558;BME280;7880;50.110;9.372;2023-01-28T18:05:07;-0.6957510892068968;;;-0.562;100.0
15558;BME280;7880;50.110;9.372;2023-01-28T18:10:17;-0.6150845803087577;;;-0.562;100.0
15558;BME280;7880;50.110;9.372;2023-01-28T18:15:23;-0.6050012614578009;;;-0.5;100.0
15558;BME280;7880;50.110;9.372;2023-01-28T18:20:36;-0.781459173274925;;;-0.625;100.0
15558;BME280;7880;50.110;9.372;2023-01-28T18:25:32;-1.1192490385612472;;;-1.0;100.0
15558;BME280;7880;50.110;9.372;2023-01-28T18:30:30;-0.781459173274925;;;-0.75;100.0
15558;BME280;7880;50.110;9.372;2023-01-28T18:35:40;-0.9075003205798566;;;-0.75;100.0
15558;BME280;7880;50.110;9.372;2023-01-28T18:40:53;-1.2301648288033902;;;-1.125;100.0
15558;BME280;7880;50.110;9.372;2023-01-28T18:45:44;-1.073874356498709;;;-1.0;100.0
15558;BME280;7880;50.110;9.372;2023-01-28T18:50:49;-1.2553729433042462;;;-1.187;100.0
15558;BME280;7880;50.110;9.372;2023-01-28T18:55:50;-1.295705911371624;;;-1.187;100.0
15558;BME280;7880;50.110;9.372;2023-01-28T19:00:54;-1.386455021420261;;;-1.25;100.0
15558;BME280;7880;50.110;9.372;2023-01-28T19:06:02;-1.209998331964016;;;-1.062;100.0
15558;BME280;7880;50.110;9.372;2023-01-28T19:11:01;-1.1192490385612472;;;-1.062;100.0
15558;BME280;7880;50.110;9.372;2023-01-28T19:16:05;-1.1696653243154287;;;-1.062;100.0
15558;BME280;7880;50.110;9.372;2023-01-28T19:21:10;-1.0990825161105022;;;-1.0;100.0
15558;BME280;7880;50.110;9.372;2023-01-28T19:26:16;-1.2301648288033902;;;-1.125;100.0
15558;BME280;7880;50.110;9.372;2023-01-28T19:31:20;-1.235206452285638;;;-1.187;100.0
15558;BME280;7880;50.110;9.372;2023-01-28T19:36:27;-1.2755394296662417;;;-1.187;100.0
15558;BME280;7880;50.110;9.372;2023-01-28T19:41:26;-1.209998331964016;;;-1.062;100.0
15558;BME280;7880;50.110;9.372;2023-01-28T19:46:31;-1.4923288639634849;;;-1.437;100.0
15558;BME280;7880;50.110;9.372;2023-01-28T19:51:34;-1.1847902043664362;;;-1.125;100.0
15558;BME280;7880;50.110;9.372;2023-01-28T19:56:38;-1.0839576212165412;;;-0.937;100.0
15558;BME280;7880;50.110;9.372;2023-01-28T20:01:43;-0.9478334493003786;;;-0.812;100.0
15558;BME280;7880;50.110;9.372;2023-01-28T20:06:52;-1.0537078235705848;;;-0.875;100.0
15558;BME280;7880;50.110;9.372;2023-01-28T20:11:52;-0.957916728570126;;;-0.812;100.0
15558;BME280;7880;50.110;9.372;2023-01-28T20:16:59;-0.9125419626885559;;;-0.75;100.0
15558;BME280;7880;50.110;9.372;2023-01-28T20:21:58;-0.9427918092289473;;;-0.75;100.0
15558;BME280;7880;50.110;9.372;2023-01-28T20:27:02;-0.9932081968465354;;;-0.812;100.0
15558;BME280;7880;50.110;9.372;2023-01-28T20:32:06;-1.300747531070374;;;-1.125;100.0
15558;BME280;7880;50.110;9.372;2023-01-28T20:37:13;-1.2856226711010095;;;-1.0;100.0
15558;BME280;7880;50.110;9.372;2023-01-28T20:42:13;-1.1242906684463378;;;-1.0;100.0
15558;BME280;7880;50.110;9.372;2023-01-28T20:47:16;-1.235206452285638;;;-1.062;100.0
15558;BME280;7880;50.110;9.372;2023-01-28T20:52:20;-1.2553729433042462;;;-1.187;100.0
15558;BME280;7880;50.110;9.372;2023-01-28T20:57:23;-1.3259556251985487;;;-1.187;100.0
15558;BME280;7880;50.110;9.372;2023-01-28T21:02:30;-1.043624555360293;;;-1.0;100.0
15558;BME280;7880;50.110;9.372;2023-01-28T21:07:38;-1.0537078235705848;;;-0.875;100.0
15558;BME280;7880;50.110;9.372;2023-01-28T21:12:35;-1.043624555360293;;;-0.937;100.0
15558;BME280;7880;50.110;9.372;2023-01-28T21:17:39;-1.018416379741393;;;-0.875;100.0
15558;BME280;7880;50.110;9.372;2023-01-28T21:22:49;-1.1242906684463378;;;-0.937;100.0
15558;BME280;7880;50.110;9.372;2023-01-28T21:27:46;-1.1192490385612472;;;-0.937;100.0
15558;BME280;7880;50.110;9.372;2023-01-28T21:32:56;-1.0537078235705848;;;-0.875;100.0
15558;BME280;7880;50.110;9.372;2023-01-28T21:37:54;-1.0637910906167236;;;-0.875;100.0
15558;BME280;7880;50.110;9.372;2023-01-28T21:42:57;-1.0537078235705848;;;-0.937;100.0
15558;BME280;7880;50.110;9.372;2023-01-28T21:48:00;-1.2856226711010095;;;-1.187;100.0
15558;BME280;7880;50.110;9.372;2023-01-28T21:53:03;-1.2805810505291446;;;-1.187;100.0
15558;BME280;7880;50.110;9.372;2023-01-28T21:59:27;-1.5074536881351377;;;-1.437;100.0
15558;BME280;7880;50.110;9.372;2023-01-28T22:04:07;-1.4570375973766203;;;-1.437;100.0
15558;BME280;7880;50.110;9.372;2023-01-28T22:09:13;-1.2553729433042462;;;-1.187;100.0
15558;BME280;7880;50.110;9.372;2023-01-28T22:14:14;-1.235206452285638;;;-1.125;100.0
15558;BME280;7880;50.110;9.372;2023-01-28T22:19:19;-1.290664291381836;;;-1.187;100.0
15558;BME280;7880;50.110;9.372;2023-01-28T22:24:28;-1.4015798639273271;;;-1.25;100.0
15558;BME280;7880;50.110;9.372;2023-01-28T22:29:27;-1.2402480754768477;;;-1.187;100.0
15558;BME280;7880;50.110;9.372;2023-01-28T22:34:31;-1.3360388608125504;;;-1.187;100.0
15558;BME280;7880;50.110;9.372;2023-01-28T22:39:35;-1.7292841417191085;;;-1.562;100.0
15558;BME280;7880;50.110;9.372;2023-01-28T22:44:48;-1.4318295410834252;;;-1.437;100.0
15558;BME280;7880;50.110;9.372;2023-01-28T22:49:44;-1.4973704723117407;;;-1.437;100.0
15558;BME280;7880;50.110;9.372;2023-01-28T22:54:51;-1.578036166302627;;;-1.5;100.0
15558;BME280;7880;50.110;9.372;2023-01-28T22:59:58;-1.603244180395268;;;-1.437;100.0
15558;BME280;7880;50.110;9.372;2023-01-28T23:05:01;-1.618368985358393;;;-1.437;100.0
15558;BME280;7880;50.110;9.372;2023-01-28T23:10:05;-1.658701785787707;;;-1.5;100.0
15558;BME280;7880;50.110;9.372;2023-01-28T23:28:43;-1.477204037172487;;;-1.375;100.0
15558;BME280;7880;50.110;9.372;2023-01-28T23:33:49;-1.4167047038150486;;;-1.312;100.0
15558;BME280;7880;50.110;9.372;2023-01-28T23:38:52;-1.6385353879013564;;;-1.5;100.0
15558;BME280;7880;50.110;9.372;2023-01-28T23:43:59;-1.7544921121560038;;;-1.562;100.0
15558;BME280;7880;50.110;9.372;2023-01-28T23:49:00;-1.5276201162894723;;;-1.5;100.0
15558;BME280;7880;50.110;9.372;2023-01-28T23:54:06;-1.3763717916270253;;;-1.312;100.0
15558;BME280;7880;50.110;9.372;2023-01-28T23:59:09;-1.451995986700058;;;-1.312;100.0
